createdAt,value
2022-10-03T00:01:42.055Z,23.70
2022-10-03T00:03:56.732Z,23.70
2022-10-03T00:06:19.822Z,23.70
2022-10-03T00:08:42.586Z,23.70
2022-10-03T00:11:01.237Z,23.70
2022-10-03T00:13:20.556Z,23.60
2022-10-03T00:15:31.451Z,23.70
2022-10-03T00:17:50.121Z,23.70
2022-10-03T00:20:04.982Z,23.70
2022-10-03T00:22:23.530Z,23.70
2022-10-03T00:24:45.106Z,23.80
2022-10-03T00:26:58.578Z,23.90
2022-10-03T00:29:19.381Z,23.90
2022-10-03T00:31:37.434Z,23.90
2022-10-03T00:33:56.937Z,24.00
2022-10-03T00:36:10.776Z,24.00
2022-10-03T00:38:45.143Z,24.00
2022-10-03T00:41:34.669Z,24.00
2022-10-03T00:44:14.977Z,24.00
2022-10-03T00:46:38.114Z,24.00
2022-10-03T00:49:13.319Z,24.00
2022-10-03T00:51:39.686Z,23.90
2022-10-03T00:54:07.167Z,23.90
2022-10-03T00:56:33.183Z,23.90
2022-10-03T00:58:59.104Z,23.90
2022-10-03T01:01:24.022Z,23.90
2022-10-03T01:03:44.193Z,23.90
2022-10-03T01:06:16.251Z,23.80
2022-10-03T01:08:59.481Z,23.70
2022-10-03T01:11:21.970Z,23.60
2022-10-03T01:13:44.159Z,23.60
2022-10-03T01:15:55.036Z,23.60
2022-10-03T01:18:23.091Z,23.70
2022-10-03T01:20:41.853Z,23.70
2022-10-03T01:23:26.201Z,23.70
2022-10-03T01:25:42.799Z,23.60
2022-10-03T01:28:16.152Z,23.60
2022-10-03T01:30:26.304Z,23.60
2022-10-03T01:32:37.964Z,23.60
2022-10-03T01:34:45.984Z,23.70
2022-10-03T01:37:03.456Z,23.70
2022-10-03T01:39:20.163Z,23.80
2022-10-03T01:41:37.623Z,23.80
2022-10-03T01:43:48.510Z,23.90
2022-10-03T01:46:12.333Z,23.90
2022-10-03T01:48:34.465Z,23.90
2022-10-03T01:50:53.824Z,24.00
2022-10-03T01:53:07.865Z,24.00
2022-10-03T01:55:23.905Z,24.00
2022-10-03T01:57:37.947Z,24.10
2022-10-03T01:59:49.892Z,24.10
2022-10-03T02:02:05.272Z,24.10
2022-10-03T02:04:26.015Z,24.10
2022-10-03T02:06:45.739Z,24.20
2022-10-03T02:08:59.783Z,24.20
2022-10-03T02:11:09.473Z,24.20
2022-10-03T02:13:21.520Z,24.20
2022-10-03T02:15:34.282Z,24.30
2022-10-03T02:17:55.287Z,24.20
2022-10-03T02:20:10.559Z,24.30
2022-10-03T02:22:33.819Z,24.30
2022-10-03T02:24:52.576Z,24.30
2022-10-03T02:27:16.392Z,24.20
2022-10-03T02:29:54.602Z,24.20
2022-10-03T02:32:33.322Z,24.20
2022-10-03T02:35:18.289Z,24.20
2022-10-03T02:37:53.484Z,24.20
2022-10-03T02:40:29.128Z,24.20
2022-10-03T02:43:10.611Z,24.20
2022-10-03T02:45:53.761Z,24.20
2022-10-03T02:48:43.977Z,24.30
2022-10-03T02:51:29.817Z,24.30
2022-10-03T02:54:29.336Z,24.30
2022-10-03T02:57:09.203Z,24.30
2022-10-03T02:59:56.607Z,24.40
2022-10-03T03:02:34.134Z,24.40
2022-10-03T03:05:10.095Z,24.40
2022-10-03T03:07:38.117Z,24.50
2022-10-03T03:10:25.645Z,24.40
2022-10-03T03:13:05.443Z,24.50
2022-10-03T03:15:52.354Z,24.50
2022-10-03T03:18:09.416Z,24.60
2022-10-03T03:20:35.593Z,24.70
2022-10-03T03:22:57.007Z,24.80
2022-10-03T03:25:15.762Z,24.80
2022-10-03T03:27:52.827Z,24.90
2022-10-03T03:30:05.812Z,25.10
2022-10-03T03:32:24.410Z,25.20
2022-10-03T03:34:37.121Z,25.20
2022-10-03T03:36:52.496Z,25.20
2022-10-03T03:39:16.012Z,25.30
2022-10-03T03:41:34.714Z,25.30
2022-10-03T03:44:07.697Z,25.30
2022-10-03T03:46:36.127Z,25.40
2022-10-03T03:49:00.827Z,25.60
2022-10-03T03:51:23.159Z,25.70
2022-10-03T03:53:54.301Z,25.90
2022-10-03T03:56:21.553Z,26.20
2022-10-03T03:58:38.156Z,26.30
2022-10-03T04:01:01.227Z,26.40
2022-10-03T04:03:33.324Z,26.60
2022-10-03T04:06:07.130Z,26.70
2022-10-03T04:08:29.468Z,26.80
2022-10-03T04:10:46.376Z,26.90
2022-10-03T04:13:21.667Z,27.00
2022-10-03T04:15:53.323Z,27.10
2022-10-03T04:18:41.157Z,27.10
2022-10-03T04:21:04.518Z,27.10
2022-10-03T04:23:24.813Z,27.10
2022-10-03T04:25:49.252Z,27.20
2022-10-03T04:28:23.459Z,27.40
2022-10-03T04:30:37.194Z,27.50
2022-10-03T04:33:10.231Z,27.40
2022-10-03T04:35:51.348Z,27.40
2022-10-03T04:38:07.962Z,27.30
2022-10-03T04:40:41.973Z,27.30
2022-10-03T04:42:57.140Z,27.30
2022-10-03T04:45:29.816Z,27.30
2022-10-03T04:47:51.594Z,27.20
2022-10-03T04:50:03.588Z,27.20
2022-10-03T04:52:21.171Z,27.30
2022-10-03T04:54:33.780Z,27.30
2022-10-03T04:56:51.912Z,27.30
2022-10-03T04:59:07.490Z,27.30
2022-10-03T05:01:23.952Z,27.20
2022-10-03T05:03:45.649Z,27.20
2022-10-03T05:05:57.912Z,27.20
2022-10-03T05:08:15.999Z,27.10
2022-10-03T05:10:48.217Z,27.10
2022-10-03T05:13:01.905Z,27.30
2022-10-03T05:15:22.500Z,27.30
2022-10-03T05:17:43.607Z,27.50
2022-10-03T05:20:17.873Z,27.50
2022-10-03T05:22:44.051Z,27.60
2022-10-03T05:25:00.190Z,27.70
2022-10-03T05:27:16.897Z,27.90
2022-10-03T05:29:35.499Z,28.10
2022-10-03T05:31:53.161Z,28.20
2022-10-03T05:34:12.763Z,28.30
2022-10-03T05:36:30.887Z,28.20
2022-10-03T05:39:01.167Z,28.10
2022-10-03T05:41:12.844Z,28.00
2022-10-03T05:43:31.188Z,28.00
2022-10-03T05:45:51.702Z,28.00
2022-10-03T05:48:22.211Z,28.00
2022-10-03T05:50:58.734Z,27.90
2022-10-03T05:53:18.967Z,27.90
2022-10-03T05:55:48.523Z,27.90
2022-10-03T05:58:27.145Z,28.10
2022-10-03T06:00:47.174Z,28.20
2022-10-03T06:03:28.486Z,28.30
2022-10-03T06:05:47.823Z,28.30
2022-10-03T06:08:18.921Z,28.40
2022-10-03T06:10:47.551Z,28.50
2022-10-03T06:13:06.051Z,28.70
2022-10-03T06:15:36.680Z,28.90
2022-10-03T06:18:05.108Z,28.90
2022-10-03T06:20:48.080Z,28.90
2022-10-03T06:23:16.202Z,28.80
2022-10-03T06:25:55.998Z,28.70
2022-10-03T06:28:41.222Z,28.60
2022-10-03T06:31:15.027Z,28.50
2022-10-03T06:33:59.739Z,28.40
2022-10-03T06:36:46.395Z,28.30
2022-10-03T06:39:53.276Z,28.40
2022-10-03T06:42:34.608Z,28.50
2022-10-03T06:45:07.045Z,28.70
2022-10-03T06:47:39.661Z,28.80
2022-10-03T06:50:31.078Z,28.90
2022-10-03T06:52:57.461Z,28.90
2022-10-03T06:55:44.633Z,29.10
2022-10-03T06:58:32.002Z,29.30
2022-10-03T07:00:56.855Z,29.40
2022-10-03T07:03:39.667Z,29.40
2022-10-03T07:06:21.306Z,29.30
2022-10-03T07:09:30.337Z,29.30
2022-10-03T07:12:06.421Z,29.40
2022-10-03T07:15:02.167Z,29.50
2022-10-03T07:17:33.157Z,29.60
2022-10-03T07:20:18.433Z,29.70
2022-10-03T07:22:58.740Z,29.80
2022-10-03T07:25:33.417Z,29.90
2022-10-03T07:28:00.180Z,29.80
2022-10-03T07:30:17.167Z,29.60
2022-10-03T07:32:45.802Z,29.40
2022-10-03T07:35:19.403Z,29.40
2022-10-03T07:38:00.686Z,29.40
2022-10-03T07:40:36.486Z,29.50
2022-10-03T07:43:36.714Z,29.60
2022-10-03T07:45:48.756Z,29.70
2022-10-03T07:48:30.961Z,29.80
2022-10-03T07:51:08.143Z,29.90
2022-10-03T07:53:50.655Z,29.90
2022-10-03T07:56:09.856Z,29.90
2022-10-03T07:58:31.601Z,29.90
2022-10-03T08:00:54.747Z,29.90
2022-10-03T08:03:49.389Z,29.90
2022-10-03T08:06:18.283Z,30.00
2022-10-03T08:08:58.385Z,30.10
2022-10-03T08:11:28.095Z,30.10
2022-10-03T08:13:49.978Z,30.00
2022-10-03T08:16:13.409Z,30.00
2022-10-03T08:18:55.584Z,29.80
2022-10-03T08:21:06.208Z,29.80
2022-10-03T08:23:35.096Z,29.70
2022-10-03T08:25:58.039Z,29.60
2022-10-03T08:28:26.086Z,29.50
2022-10-03T08:30:46.636Z,29.40
2022-10-03T08:33:17.184Z,29.30
2022-10-03T08:35:56.300Z,29.20
2022-10-03T08:38:37.903Z,29.10
2022-10-03T08:41:22.257Z,29.00
2022-10-03T08:44:13.633Z,28.90
2022-10-03T08:46:42.157Z,28.80
2022-10-03T08:49:01.217Z,28.80
2022-10-03T08:51:39.145Z,28.90
2022-10-03T08:54:21.730Z,28.90
2022-10-03T08:56:39.100Z,29.00
2022-10-03T08:59:13.524Z,29.10
2022-10-03T09:01:37.962Z,29.10
2022-10-03T09:04:42.497Z,29.00
2022-10-03T09:07:21.599Z,29.00
2022-10-03T09:10:01.668Z,28.80
2022-10-03T09:12:51.039Z,28.60
2022-10-03T09:15:22.230Z,28.50
2022-10-03T09:17:58.801Z,28.40
2022-10-03T09:20:46.022Z,28.20
2022-10-03T09:23:30.630Z,28.10
2022-10-03T09:26:07.153Z,28.00
2022-10-03T09:28:39.050Z,27.90
2022-10-03T09:30:52.576Z,27.90
2022-10-03T09:33:40.639Z,27.80
2022-10-03T09:36:13.104Z,27.70
2022-10-03T09:38:48.554Z,27.70
2022-10-03T09:41:29.574Z,27.60
2022-10-03T09:44:18.638Z,27.60
2022-10-03T09:47:09.447Z,27.60
2022-10-03T09:49:41.766Z,27.50
2022-10-03T09:52:09.150Z,27.50
2022-10-03T09:55:08.629Z,27.40
2022-10-03T09:57:44.634Z,27.50
2022-10-03T10:00:25.508Z,27.40
2022-10-03T10:03:16.975Z,27.40
2022-10-03T10:05:52.215Z,27.40
2022-10-03T10:08:27.864Z,27.40
2022-10-03T10:11:10.331Z,27.40
2022-10-03T10:14:06.703Z,27.30
2022-10-03T10:16:36.495Z,27.30
2022-10-03T10:19:17.046Z,27.30
2022-10-03T10:21:43.977Z,27.30
2022-10-03T10:24:03.557Z,27.30
2022-10-03T10:26:40.378Z,27.30
2022-10-03T10:29:24.014Z,27.30
2022-10-03T10:32:19.117Z,27.30
2022-10-03T10:35:16.271Z,27.30
2022-10-03T10:37:57.552Z,27.20
2022-10-03T10:40:39.345Z,27.10
2022-10-03T10:43:32.555Z,27.10
2022-10-03T10:46:13.491Z,27.10
2022-10-03T10:49:02.845Z,27.10
2022-10-03T10:51:45.600Z,27.10
2022-10-03T10:54:30.635Z,27.10
2022-10-03T10:57:13.093Z,27.10
2022-10-03T10:59:55.653Z,27.00
2022-10-03T11:02:40.212Z,27.00
2022-10-03T11:05:24.870Z,27.00
2022-10-03T11:08:00.418Z,27.00
2022-10-03T11:10:39.806Z,27.00
2022-10-03T11:13:42.298Z,27.00
2022-10-03T11:16:47.427Z,27.00
2022-10-03T11:19:35.362Z,27.00
2022-10-03T11:22:32.667Z,26.90
2022-10-03T11:25:14.768Z,27.00
2022-10-03T11:27:51.934Z,26.90
2022-10-03T11:30:25.759Z,26.90
2022-10-03T11:33:11.903Z,26.90
2022-10-03T11:35:56.870Z,26.90
2022-10-03T11:38:11.732Z,26.80
2022-10-03T11:40:33.418Z,26.80
2022-10-03T11:42:58.762Z,26.90
2022-10-03T11:45:07.026Z,26.80
2022-10-03T11:47:46.367Z,26.80
2022-10-03T11:50:30.466Z,26.80
2022-10-03T11:52:46.391Z,26.70
2022-10-03T11:54:57.101Z,26.70
2022-10-03T11:57:11.451Z,26.70
2022-10-03T11:59:46.486Z,26.70
2022-10-03T12:02:09.000Z,26.70
2022-10-03T12:04:23.482Z,26.70
2022-10-03T12:07:12.033Z,26.70
2022-10-03T12:09:23.771Z,26.70
2022-10-03T12:11:31.259Z,26.70
2022-10-03T12:13:44.949Z,26.60
2022-10-03T12:15:55.350Z,26.60
2022-10-03T12:18:09.392Z,26.60
2022-10-03T12:20:27.906Z,26.70
2022-10-03T12:22:47.313Z,26.70
2022-10-03T12:24:58.061Z,26.70
2022-10-03T12:27:13.077Z,26.60
2022-10-03T12:29:22.882Z,26.60
2022-10-03T12:31:38.731Z,26.50
2022-10-03T12:33:54.755Z,26.50
2022-10-03T12:36:08.440Z,26.50
2022-10-03T12:38:34.872Z,26.40
2022-10-03T12:40:48.045Z,26.40
2022-10-03T12:43:08.385Z,26.40
2022-10-03T12:45:28.163Z,26.40
2022-10-03T12:47:57.014Z,26.40
2022-10-03T12:50:20.413Z,26.40
2022-10-03T12:52:35.430Z,26.40
2022-10-03T12:54:54.802Z,26.40
2022-10-03T12:57:39.866Z,26.40
2022-10-03T13:00:06.405Z,26.40
2022-10-03T13:02:42.447Z,26.40
2022-10-03T13:05:07.407Z,26.30
2022-10-03T13:07:29.446Z,26.30
2022-10-03T13:10:24.288Z,26.30
2022-10-03T13:13:03.674Z,26.30
2022-10-03T13:16:09.888Z,26.30
2022-10-03T13:18:48.050Z,26.40
2022-10-03T13:21:45.792Z,26.40
2022-10-03T13:24:00.573Z,26.30
2022-10-03T13:26:33.662Z,26.40
2022-10-03T13:29:15.148Z,26.30
2022-10-03T13:31:30.450Z,26.30
2022-10-03T13:33:49.837Z,26.20
2022-10-03T13:36:15.043Z,26.30
2022-10-03T13:38:57.247Z,26.20
2022-10-03T13:41:18.252Z,26.20
2022-10-03T13:43:38.744Z,26.20
2022-10-03T13:45:57.880Z,26.20
2022-10-03T13:48:15.532Z,26.20
2022-10-03T13:50:32.034Z,26.20
2022-10-03T13:53:03.023Z,26.20
2022-10-03T13:55:34.781Z,26.30
2022-10-03T13:57:48.516Z,26.20
2022-10-03T14:00:05.737Z,26.20
2022-10-03T14:02:36.565Z,26.20
2022-10-03T14:05:01.576Z,26.30
2022-10-03T14:07:19.297Z,26.30
2022-10-03T14:09:48.192Z,26.30
2022-10-03T14:12:04.175Z,26.30
2022-10-03T14:14:37.162Z,26.30
2022-10-03T14:16:59.242Z,26.30
2022-10-03T14:19:28.032Z,26.30
2022-10-03T14:22:13.921Z,26.30
2022-10-03T14:24:47.112Z,26.20
2022-10-03T14:27:21.946Z,26.20
2022-10-03T14:29:43.612Z,26.20
2022-10-03T14:31:57.571Z,26.10
2022-10-03T14:34:22.860Z,26.10
2022-10-03T14:36:53.089Z,26.10
2022-10-03T14:39:46.454Z,26.20
2022-10-03T14:42:21.228Z,26.10
2022-10-03T14:44:45.404Z,26.10
2022-10-03T14:47:03.964Z,26.10
2022-10-03T14:49:52.259Z,26.10
2022-10-03T14:52:01.077Z,26.10
2022-10-03T14:54:24.634Z,26.10
2022-10-03T14:56:38.472Z,26.10
2022-10-03T14:58:56.609Z,26.10
2022-10-03T15:01:22.684Z,26.20
2022-10-03T15:03:43.106Z,26.20
2022-10-03T15:06:02.852Z,26.10
2022-10-03T15:08:27.493Z,26.20
2022-10-03T15:11:02.527Z,26.20
2022-10-03T15:13:21.728Z,26.10
2022-10-03T15:15:40.227Z,26.10
2022-10-03T15:17:52.498Z,26.10
2022-10-03T15:20:01.055Z,26.10
2022-10-03T15:22:28.019Z,26.10
2022-10-03T15:24:39.896Z,26.20
2022-10-03T15:27:06.280Z,26.20
2022-10-03T15:29:26.304Z,26.20
2022-10-03T15:31:44.424Z,26.20
2022-10-03T15:34:02.632Z,26.20
2022-10-03T15:36:21.795Z,26.20
2022-10-03T15:38:48.590Z,26.20
2022-10-03T15:41:12.516Z,26.20
2022-10-03T15:43:53.382Z,26.20
2022-10-03T15:46:23.129Z,26.20
2022-10-03T15:48:47.510Z,26.20
2022-10-03T15:51:00.239Z,26.20
2022-10-03T15:53:36.235Z,26.20
2022-10-03T15:55:52.132Z,26.20
2022-10-03T15:58:30.751Z,26.10
2022-10-03T16:00:46.057Z,26.10
2022-10-03T16:03:10.355Z,26.00
2022-10-03T16:05:30.183Z,26.00
2022-10-03T16:07:44.948Z,26.00
2022-10-03T16:10:10.046Z,26.00
2022-10-03T16:13:02.898Z,25.90
2022-10-03T16:15:23.599Z,25.90
2022-10-03T16:17:44.808Z,25.80
2022-10-03T16:20:06.528Z,25.80
2022-10-03T16:22:30.555Z,25.80
2022-10-03T16:24:46.287Z,25.80
2022-10-03T16:27:02.996Z,25.80
2022-10-03T16:29:20.567Z,25.70
2022-10-03T16:31:31.966Z,25.70
2022-10-03T16:33:40.870Z,25.70
2022-10-03T16:35:50.764Z,25.70
2022-10-03T16:37:59.944Z,25.60
2022-10-03T16:40:10.096Z,25.60
2022-10-03T16:42:22.551Z,25.50
2022-10-03T16:44:36.850Z,25.50
2022-10-03T16:46:48.676Z,25.50
2022-10-03T16:49:15.890Z,25.40
2022-10-03T16:51:24.968Z,25.50
2022-10-03T16:53:34.606Z,25.50
2022-10-03T16:55:49.675Z,25.50
2022-10-03T16:57:59.720Z,25.50
2022-10-03T17:00:09.104Z,25.50
2022-10-03T17:02:20.133Z,25.50
2022-10-03T17:04:29.303Z,25.50
2022-10-03T17:06:39.353Z,25.50
2022-10-03T17:08:55.648Z,25.40
2022-10-03T17:11:05.647Z,25.40
2022-10-03T17:13:18.767Z,25.30
2022-10-03T17:15:27.382Z,25.30
2022-10-03T17:17:46.033Z,25.20
2022-10-03T17:20:01.608Z,25.20
2022-10-03T17:22:19.136Z,25.30
2022-10-03T17:24:50.125Z,25.30
2022-10-03T17:27:00.212Z,25.30
2022-10-03T17:29:17.290Z,25.30
2022-10-03T17:31:50.798Z,25.40
2022-10-03T17:34:01.650Z,25.40
2022-10-03T17:36:29.601Z,25.40
2022-10-03T17:38:49.900Z,25.50
2022-10-03T17:41:20.076Z,25.40
2022-10-03T17:43:39.119Z,25.40
2022-10-03T17:45:51.250Z,25.40
2022-10-03T17:48:03.573Z,25.40
2022-10-03T17:50:17.363Z,25.40
2022-10-03T17:52:26.231Z,25.30
2022-10-03T17:54:36.744Z,25.30
2022-10-03T17:56:50.300Z,25.30
2022-10-03T17:59:06.624Z,25.30
2022-10-03T18:01:16.534Z,25.30
2022-10-03T18:03:30.351Z,25.30
2022-10-03T18:05:39.899Z,25.30
2022-10-03T18:07:48.759Z,25.30
2022-10-03T18:09:57.188Z,25.30
2022-10-03T18:12:17.939Z,25.30
2022-10-03T18:14:38.227Z,25.30
2022-10-03T18:16:51.349Z,25.30
2022-10-03T18:19:22.608Z,25.30
2022-10-03T18:21:39.451Z,25.40
2022-10-03T18:24:02.607Z,25.40
2022-10-03T18:26:20.086Z,25.40
2022-10-03T18:28:31.594Z,25.40
2022-10-03T18:30:47.401Z,25.50
2022-10-03T18:32:59.493Z,25.40
2022-10-03T18:35:13.999Z,25.40
2022-10-03T18:37:56.865Z,25.30
2022-10-03T18:40:06.659Z,25.30
2022-10-03T18:42:14.402Z,25.30
2022-10-03T18:44:25.271Z,25.20
2022-10-03T18:46:36.650Z,25.30
2022-10-03T18:49:15.668Z,25.20
2022-10-03T18:51:26.341Z,25.20
2022-10-03T18:53:38.492Z,25.20
2022-10-03T18:55:49.778Z,25.20
2022-10-03T18:58:04.530Z,25.10
2022-10-03T19:00:21.647Z,25.10
2022-10-03T19:02:35.427Z,25.00
2022-10-03T19:04:47.729Z,24.90
2022-10-03T19:06:56.859Z,24.90
2022-10-03T19:09:10.493Z,24.90
2022-10-03T19:11:25.044Z,24.90
2022-10-03T19:13:38.573Z,24.80
2022-10-03T19:16:01.802Z,24.90
2022-10-03T19:18:21.970Z,24.80
2022-10-03T19:20:31.453Z,24.90
2022-10-03T19:22:44.322Z,24.90
2022-10-03T19:24:58.720Z,24.90
2022-10-03T19:27:13.480Z,24.80
2022-10-03T19:29:25.836Z,24.80
2022-10-03T19:31:39.323Z,24.80
2022-10-03T19:33:49.721Z,24.80
2022-10-03T19:36:02.072Z,24.80
2022-10-03T19:38:17.138Z,24.80
2022-10-03T19:40:52.531Z,24.80
2022-10-03T19:43:06.831Z,24.80
2022-10-03T19:45:17.238Z,24.80
2022-10-03T19:47:31.348Z,24.80
2022-10-03T19:49:49.317Z,24.80
2022-10-03T19:52:12.727Z,24.70
2022-10-03T19:54:34.092Z,24.70
2022-10-03T19:56:41.478Z,24.60
2022-10-03T19:58:49.890Z,24.70
2022-10-03T20:00:58.118Z,24.60
2022-10-03T20:03:22.580Z,24.70
2022-10-03T20:05:35.035Z,24.70
2022-10-03T20:07:49.231Z,24.70
2022-10-03T20:10:06.961Z,24.60
2022-10-03T20:12:15.477Z,24.50
2022-10-03T20:14:27.929Z,24.40
2022-10-03T20:16:37.189Z,24.40
2022-10-03T20:18:46.696Z,24.40
2022-10-03T20:20:56.232Z,24.40
2022-10-03T20:23:09.251Z,24.30
2022-10-03T20:25:30.525Z,24.30
2022-10-03T20:27:43.377Z,24.30
2022-10-03T20:30:06.798Z,24.30
2022-10-03T20:32:19.587Z,24.40
2022-10-03T20:34:28.634Z,24.40
2022-10-03T20:36:39.962Z,24.50
2022-10-03T20:39:08.084Z,24.50
2022-10-03T20:41:20.077Z,24.50
2022-10-03T20:43:32.722Z,24.50
2022-10-03T20:45:41.776Z,24.50
2022-10-03T20:47:59.028Z,24.50
2022-10-03T20:50:15.683Z,24.50
2022-10-03T20:52:24.091Z,24.50
2022-10-03T20:54:38.293Z,24.50
2022-10-03T20:57:00.418Z,24.50
2022-10-03T20:59:12.873Z,24.50
2022-10-03T21:01:22.115Z,24.50
2022-10-03T21:03:36.696Z,24.50
2022-10-03T21:05:49.984Z,24.60
2022-10-03T21:07:59.622Z,24.50
2022-10-03T21:10:13.716Z,24.50
2022-10-03T21:12:26.324Z,24.60
2022-10-03T21:14:37.039Z,24.50
2022-10-03T21:16:50.473Z,24.50
2022-10-03T21:19:03.434Z,24.50
2022-10-03T21:21:18.807Z,24.50
2022-10-03T21:23:28.447Z,24.50
2022-10-03T21:25:38.854Z,24.50
2022-10-03T21:27:53.145Z,24.50
2022-10-03T21:30:04.789Z,24.50
2022-10-03T21:32:19.752Z,24.50
2022-10-03T21:34:34.358Z,24.50
2022-10-03T21:36:54.903Z,24.50
2022-10-03T21:39:12.224Z,24.40
2022-10-03T21:41:30.823Z,24.40
2022-10-03T21:43:47.171Z,24.30
2022-10-03T21:46:01.593Z,24.30
2022-10-03T21:48:17.762Z,24.30
2022-10-03T21:50:28.326Z,24.30
2022-10-03T21:53:16.005Z,24.30
2022-10-03T21:55:52.563Z,24.30
2022-10-03T21:58:10.303Z,24.30
2022-10-03T22:00:19.690Z,24.30
2022-10-03T22:02:37.490Z,24.30
2022-10-03T22:04:50.849Z,24.30
2022-10-03T22:07:04.786Z,24.30
2022-10-03T22:09:17.500Z,24.20
2022-10-03T22:11:36.506Z,24.20
2022-10-03T22:13:46.762Z,24.30
2022-10-03T22:15:57.209Z,24.30
2022-10-03T22:18:07.777Z,24.30
2022-10-03T22:20:22.133Z,24.30
2022-10-03T22:22:53.376Z,24.30
2022-10-03T22:25:12.031Z,24.30
2022-10-03T22:27:28.472Z,24.20
2022-10-03T22:29:44.256Z,24.20
2022-10-03T22:31:55.532Z,24.20
2022-10-03T22:34:26.318Z,24.20
2022-10-03T22:36:37.134Z,24.20
2022-10-03T22:38:44.367Z,24.20
2022-10-03T22:40:52.574Z,24.20
2022-10-03T22:43:04.362Z,24.20
2022-10-03T22:45:14.054Z,24.30
2022-10-03T22:47:24.664Z,24.30
2022-10-03T22:49:36.713Z,24.30
2022-10-03T22:51:45.990Z,24.30
2022-10-03T22:53:57.883Z,24.20
2022-10-03T22:56:26.979Z,24.20
2022-10-03T22:58:35.798Z,24.20
2022-10-03T23:00:47.232Z,24.20
2022-10-03T23:03:01.743Z,24.20
2022-10-03T23:05:13.063Z,24.20
2022-10-03T23:07:54.804Z,24.20
2022-10-03T23:10:15.965Z,24.10
2022-10-03T23:12:25.604Z,24.10
2022-10-03T23:14:37.647Z,24.10
2022-10-03T23:16:54.918Z,24.10
2022-10-03T23:19:20.024Z,24.00
2022-10-03T23:21:27.199Z,23.90
2022-10-03T23:23:41.651Z,23.80
2022-10-03T23:26:00.917Z,23.70
2022-10-03T23:28:21.238Z,23.70
2022-10-03T23:30:56.630Z,23.70
2022-10-03T23:33:04.138Z,23.70
2022-10-03T23:35:19.050Z,23.80
2022-10-03T23:37:44.154Z,23.80
2022-10-03T23:40:22.618Z,23.80
2022-10-03T23:42:40.756Z,23.70
2022-10-03T23:44:55.466Z,23.60
2022-10-03T23:47:05.051Z,23.60
2022-10-03T23:49:14.742Z,23.60
2022-10-03T23:51:25.510Z,23.70
2022-10-03T23:53:35.865Z,23.70
2022-10-03T23:55:43.454Z,23.70
2022-10-03T23:57:50.738Z,23.70
2022-10-03T23:59:57.714Z,23.80
